sensor_id;sensor_type;location;lat;lon;timestamp;P1;durP1;ratioP1;P2;durP2;ratioP2
25237;SDS011;13185;50.872;5.306;2023-02-28T00:00:16;5.90;;;3.07;;
25237;SDS011;13185;50.872;5.306;2023-02-28T00:02:43;4.70;;;2.83;;
25237;SDS011;13185;50.872;5.306;2023-02-28T00:05:10;5.43;;;3.20;;
25237;SDS011;13185;50.872;5.306;2023-02-28T00:07:37;5.97;;;2.77;;
25237;SDS011;13185;50.872;5.306;2023-02-28T00:10:03;5.13;;;2.90;;
25237;SDS011;13185;50.872;5.306;2023-02-28T00:12:31;4.73;;;2.70;;
25237;SDS011;13185;50.872;5.306;2023-02-28T00:14:57;6.30;;;2.80;;
25237;SDS011;13185;50.872;5.306;2023-02-28T00:17:22;6.17;;;3.33;;
25237;SDS011;13185;50.872;5.306;2023-02-28T00:19:48;7.13;;;2.70;;
25237;SDS011;13185;50.872;5.306;2023-02-28T00:22:18;3.60;;;2.60;;
25237;SDS011;13185;50.872;5.306;2023-02-28T00:24:45;7.20;;;3.30;;
25237;SDS011;13185;50.872;5.306;2023-02-28T00:27:11;10.23;;;2.60;;
25237;SDS011;13185;50.872;5.306;2023-02-28T00:29:37;6.93;;;3.10;;
25237;SDS011;13185;50.872;5.306;2023-02-28T00:32:02;7.00;;;2.53;;
25237;SDS011;13185;50.872;5.306;2023-02-28T00:34:29;4.03;;;2.53;;
25237;SDS011;13185;50.872;5.306;2023-02-28T00:36:55;4.47;;;2.83;;
25237;SDS011;13185;50.872;5.306;2023-02-28T00:39:20;5.90;;;3.13;;
25237;SDS011;13185;50.872;5.306;2023-02-28T00:41:47;9.13;;;3.13;;
25237;SDS011;13185;50.872;5.306;2023-02-28T00:44:13;4.63;;;2.87;;
25237;SDS011;13185;50.872;5.306;2023-02-28T00:46:38;6.30;;;2.80;;
25237;SDS011;13185;50.872;5.306;2023-02-28T00:49:04;5.33;;;3.50;;
25237;SDS011;13185;50.872;5.306;2023-02-28T00:51:29;5.60;;;3.10;;
25237;SDS011;13185;50.872;5.306;2023-02-28T00:53:56;4.30;;;2.73;;
25237;SDS011;13185;50.872;5.306;2023-02-28T00:56:22;5.73;;;3.23;;
25237;SDS011;13185;50.872;5.306;2023-02-28T00:58:48;5.63;;;2.97;;
25237;SDS011;13185;50.872;5.306;2023-02-28T01:01:13;7.97;;;3.20;;
25237;SDS011;13185;50.872;5.306;2023-02-28T01:03:39;6.53;;;3.17;;
25237;SDS011;13185;50.872;5.306;2023-02-28T01:06:04;5.57;;;3.60;;
25237;SDS011;13185;50.872;5.306;2023-02-28T01:08:30;6.97;;;2.90;;
25237;SDS011;13185;50.872;5.306;2023-02-28T01:10:56;6.37;;;3.23;;
25237;SDS011;13185;50.872;5.306;2023-02-28T01:13:22;7.60;;;3.23;;
25237;SDS011;13185;50.872;5.306;2023-02-28T01:15:51;5.87;;;2.83;;
25237;SDS011;13185;50.872;5.306;2023-02-28T01:18:20;4.17;;;2.90;;
25237;SDS011;13185;50.872;5.306;2023-02-28T01:20:46;7.80;;;3.33;;
25237;SDS011;13185;50.872;5.306;2023-02-28T01:23:12;4.40;;;2.93;;
25237;SDS011;13185;50.872;5.306;2023-02-28T01:25:38;8.50;;;3.33;;
25237;SDS011;13185;50.872;5.306;2023-02-28T01:28:04;6.57;;;3.13;;
25237;SDS011;13185;50.872;5.306;2023-02-28T01:30:30;5.83;;;3.07;;
25237;SDS011;13185;50.872;5.306;2023-02-28T01:32:56;5.17;;;3.40;;
25237;SDS011;13185;50.872;5.306;2023-02-28T01:35:24;6.03;;;3.57;;
25237;SDS011;13185;50.872;5.306;2023-02-28T01:37:50;6.70;;;3.27;;
25237;SDS011;13185;50.872;5.306;2023-02-28T01:40:15;5.93;;;2.73;;
25237;SDS011;13185;50.872;5.306;2023-02-28T01:42:41;7.53;;;3.50;;
25237;SDS011;13185;50.872;5.306;2023-02-28T01:45:16;5.57;;;3.00;;
25237;SDS011;13185;50.872;5.306;2023-02-28T01:47:43;5.43;;;3.20;;
25237;SDS011;13185;50.872;5.306;2023-02-28T01:50:12;5.57;;;3.60;;
25237;SDS011;13185;50.872;5.306;2023-02-28T01:52:41;3.97;;;3.43;;
25237;SDS011;13185;50.872;5.306;2023-02-28T01:55:09;6.50;;;3.53;;
25237;SDS011;13185;50.872;5.306;2023-02-28T01:57:38;5.00;;;3.23;;
25237;SDS011;13185;50.872;5.306;2023-02-28T02:00:09;4.77;;;3.13;;
25237;SDS011;13185;50.872;5.306;2023-02-28T02:02:38;4.93;;;3.33;;
25237;SDS011;13185;50.872;5.306;2023-02-28T02:05:12;7.80;;;3.90;;
25237;SDS011;13185;50.872;5.306;2023-02-28T02:07:41;7.88;;;3.25;;
25237;SDS011;13185;50.872;5.306;2023-02-28T02:10:27;5.47;;;3.00;;
25237;SDS011;13185;50.872;5.306;2023-02-28T02:15:42;4.47;;;3.20;;
25237;SDS011;13185;50.872;5.306;2023-02-28T02:40:19;5.50;;;3.25;;
25237;SDS011;13185;50.872;5.306;2023-02-28T02:42:51;5.03;;;3.60;;
25237;SDS011;13185;50.872;5.306;2023-02-28T02:45:25;7.83;;;4.10;;
25237;SDS011;13185;50.872;5.306;2023-02-28T02:48:00;6.07;;;3.23;;
25237;SDS011;13185;50.872;5.306;2023-02-28T02:50:33;4.50;;;3.27;;
25237;SDS011;13185;50.872;5.306;2023-02-28T02:53:03;5.63;;;3.30;;
25237;SDS011;13185;50.872;5.306;2023-02-28T02:55:33;5.77;;;3.40;;
25237;SDS011;13185;50.872;5.306;2023-02-28T02:58:03;5.13;;;3.43;;
25237;SDS011;13185;50.872;5.306;2023-02-28T03:00:35;6.83;;;3.70;;
25237;SDS011;13185;50.872;5.306;2023-02-28T03:03:04;8.67;;;3.87;;
25237;SDS011;13185;50.872;5.306;2023-02-28T03:05:49;5.50;;;3.40;;
25237;SDS011;13185;50.872;5.306;2023-02-28T03:08:15;6.23;;;3.53;;
25237;SDS011;13185;50.872;5.306;2023-02-28T03:10:43;7.83;;;3.60;;
25237;SDS011;13185;50.872;5.306;2023-02-28T03:16:01;11.30;;;4.00;;
25237;SDS011;13185;50.872;5.306;2023-02-28T03:24:15;5.60;;;3.67;;
25237;SDS011;13185;50.872;5.306;2023-02-28T03:26:50;5.67;;;3.47;;
25237;SDS011;13185;50.872;5.306;2023-02-28T03:29:33;5.20;;;3.40;;
25237;SDS011;13185;50.872;5.306;2023-02-28T03:32:08;6.77;;;3.73;;
25237;SDS011;13185;50.872;5.306;2023-02-28T03:35:00;7.23;;;4.10;;
25237;SDS011;13185;50.872;5.306;2023-02-28T03:37:34;6.60;;;3.57;;
25237;SDS011;13185;50.872;5.306;2023-02-28T03:40:04;8.50;;;4.30;;
25237;SDS011;13185;50.872;5.306;2023-02-28T03:42:34;9.57;;;3.53;;
25237;SDS011;13185;50.872;5.306;2023-02-28T03:45:04;9.77;;;4.00;;
25237;SDS011;13185;50.872;5.306;2023-02-28T03:55:32;5.97;;;4.73;;
25237;SDS011;13185;50.872;5.306;2023-02-28T04:00:55;6.13;;;4.17;;
25237;SDS011;13185;50.872;5.306;2023-02-28T04:03:42;7.80;;;4.00;;
25237;SDS011;13185;50.872;5.306;2023-02-28T04:06:09;8.43;;;4.20;;
25237;SDS011;13185;50.872;5.306;2023-02-28T04:08:43;7.23;;;4.77;;
25237;SDS011;13185;50.872;5.306;2023-02-28T04:13:43;7.27;;;3.70;;
25237;SDS011;13185;50.872;5.306;2023-02-28T04:16:09;8.40;;;3.83;;
25237;SDS011;13185;50.872;5.306;2023-02-28T04:18:38;9.03;;;3.77;;
25237;SDS011;13185;50.872;5.306;2023-02-28T04:21:05;5.53;;;3.57;;
25237;SDS011;13185;50.872;5.306;2023-02-28T04:23:31;5.17;;;4.00;;
25237;SDS011;13185;50.872;5.306;2023-02-28T04:25:56;7.97;;;4.33;;
25237;SDS011;13185;50.872;5.306;2023-02-28T04:28:22;5.70;;;3.40;;
25237;SDS011;13185;50.872;5.306;2023-02-28T04:30:53;7.63;;;4.83;;
25237;SDS011;13185;50.872;5.306;2023-02-28T04:33:29;6.43;;;3.90;;
25237;SDS011;13185;50.872;5.306;2023-02-28T04:36:00;8.33;;;3.80;;
25237;SDS011;13185;50.872;5.306;2023-02-28T04:38:32;8.65;;;4.18;;
25237;SDS011;13185;50.872;5.306;2023-02-28T04:40:59;7.07;;;4.33;;
25237;SDS011;13185;50.872;5.306;2023-02-28T04:43:26;6.33;;;4.50;;
25237;SDS011;13185;50.872;5.306;2023-02-28T04:45:53;7.70;;;3.67;;
25237;SDS011;13185;50.872;5.306;2023-02-28T04:48:25;5.63;;;4.17;;
25237;SDS011;13185;50.872;5.306;2023-02-28T04:50:53;7.63;;;4.10;;
25237;SDS011;13185;50.872;5.306;2023-02-28T04:53:18;7.17;;;4.50;;
25237;SDS011;13185;50.872;5.306;2023-02-28T04:55:44;8.37;;;4.60;;
25237;SDS011;13185;50.872;5.306;2023-02-28T04:58:11;7.63;;;4.40;;
25237;SDS011;13185;50.872;5.306;2023-02-28T05:00:36;8.70;;;4.53;;
25237;SDS011;13185;50.872;5.306;2023-02-28T05:03:02;9.80;;;4.67;;
25237;SDS011;13185;50.872;5.306;2023-02-28T05:05:28;9.03;;;4.40;;
25237;SDS011;13185;50.872;5.306;2023-02-28T05:07:53;9.50;;;4.60;;
25237;SDS011;13185;50.872;5.306;2023-02-28T05:10:21;6.20;;;4.60;;
25237;SDS011;13185;50.872;5.306;2023-02-28T05:12:47;7.47;;;5.00;;
25237;SDS011;13185;50.872;5.306;2023-02-28T05:15:14;7.13;;;4.27;;
25237;SDS011;13185;50.872;5.306;2023-02-28T05:17:40;6.63;;;4.37;;
25237;SDS011;13185;50.872;5.306;2023-02-28T05:20:06;7.37;;;4.43;;
25237;SDS011;13185;50.872;5.306;2023-02-28T05:22:33;10.07;;;4.80;;
25237;SDS011;13185;50.872;5.306;2023-02-28T05:24:59;7.73;;;4.53;;
25237;SDS011;13185;50.872;5.306;2023-02-28T05:27:24;9.43;;;4.73;;
25237;SDS011;13185;50.872;5.306;2023-02-28T05:29:50;7.10;;;4.80;;
25237;SDS011;13185;50.872;5.306;2023-02-28T05:32:15;7.17;;;4.33;;
25237;SDS011;13185;50.872;5.306;2023-02-28T05:34:41;7.83;;;5.10;;
25237;SDS011;13185;50.872;5.306;2023-02-28T05:37:10;8.80;;;4.53;;
25237;SDS011;13185;50.872;5.306;2023-02-28T05:42:06;6.80;;;4.20;;
25237;SDS011;13185;50.872;5.306;2023-02-28T05:44:32;6.23;;;3.80;;
25237;SDS011;13185;50.872;5.306;2023-02-28T05:46:57;6.90;;;4.20;;
25237;SDS011;13185;50.872;5.306;2023-02-28T05:49:23;7.63;;;4.20;;
25237;SDS011;13185;50.872;5.306;2023-02-28T05:51:48;10.27;;;4.93;;
25237;SDS011;13185;50.872;5.306;2023-02-28T05:54:14;8.27;;;5.07;;
25237;SDS011;13185;50.872;5.306;2023-02-28T05:56:39;9.90;;;4.40;;
25237;SDS011;13185;50.872;5.306;2023-02-28T05:59:06;8.73;;;5.17;;
25237;SDS011;13185;50.872;5.306;2023-02-28T06:04:02;7.47;;;4.23;;
25237;SDS011;13185;50.872;5.306;2023-02-28T06:06:29;10.43;;;4.80;;
25237;SDS011;13185;50.872;5.306;2023-02-28T06:08:55;10.00;;;4.67;;
25237;SDS011;13185;50.872;5.306;2023-02-28T06:11:21;12.50;;;4.57;;
25237;SDS011;13185;50.872;5.306;2023-02-28T06:14:01;10.20;;;4.80;;
25237;SDS011;13185;50.872;5.306;2023-02-28T06:16:27;7.60;;;4.30;;
25237;SDS011;13185;50.872;5.306;2023-02-28T06:18:54;7.50;;;4.30;;
25237;SDS011;13185;50.872;5.306;2023-02-28T06:21:22;6.07;;;4.27;;
25237;SDS011;13185;50.872;5.306;2023-02-28T06:23:48;9.77;;;4.90;;
25237;SDS011;13185;50.872;5.306;2023-02-28T06:26:13;5.77;;;4.83;;
25237;SDS011;13185;50.872;5.306;2023-02-28T06:28:39;8.60;;;5.13;;
25237;SDS011;13185;50.872;5.306;2023-02-28T06:31:11;7.13;;;4.80;;
25237;SDS011;13185;50.872;5.306;2023-02-28T06:33:38;8.30;;;4.30;;
25237;SDS011;13185;50.872;5.306;2023-02-28T06:36:05;6.80;;;4.80;;
25237;SDS011;13185;50.872;5.306;2023-02-28T06:38:31;7.70;;;4.43;;
25237;SDS011;13185;50.872;5.306;2023-02-28T06:40:58;10.63;;;4.40;;
25237;SDS011;13185;50.872;5.306;2023-02-28T06:43:29;7.17;;;4.73;;
25237;SDS011;13185;50.872;5.306;2023-02-28T06:45:57;6.10;;;4.30;;
25237;SDS011;13185;50.872;5.306;2023-02-28T06:48:24;6.63;;;4.50;;
25237;SDS011;13185;50.872;5.306;2023-02-28T06:50:51;7.87;;;4.33;;
25237;SDS011;13185;50.872;5.306;2023-02-28T06:53:17;6.70;;;3.90;;
25237;SDS011;13185;50.872;5.306;2023-02-28T06:55:43;7.00;;;4.40;;
25237;SDS011;13185;50.872;5.306;2023-02-28T06:58:08;10.23;;;5.50;;
25237;SDS011;13185;50.872;5.306;2023-02-28T07:00:43;10.07;;;5.53;;
25237;SDS011;13185;50.872;5.306;2023-02-28T07:03:10;14.43;;;7.50;;
25237;SDS011;13185;50.872;5.306;2023-02-28T07:05:37;13.83;;;8.40;;
25237;SDS011;13185;50.872;5.306;2023-02-28T07:08:04;16.97;;;10.00;;
25237;SDS011;13185;50.872;5.306;2023-02-28T07:10:31;13.33;;;7.87;;
25237;SDS011;13185;50.872;5.306;2023-02-28T07:12:57;13.60;;;7.67;;
25237;SDS011;13185;50.872;5.306;2023-02-28T07:15:23;12.80;;;7.90;;
25237;SDS011;13185;50.872;5.306;2023-02-28T07:17:49;10.30;;;5.60;;
25237;SDS011;13185;50.872;5.306;2023-02-28T07:20:15;6.27;;;4.80;;
25237;SDS011;13185;50.872;5.306;2023-02-28T07:22:41;10.33;;;4.83;;
25237;SDS011;13185;50.872;5.306;2023-02-28T07:25:06;8.77;;;6.07;;
25237;SDS011;13185;50.872;5.306;2023-02-28T07:27:32;9.90;;;6.03;;
25237;SDS011;13185;50.872;5.306;2023-02-28T07:29:59;16.27;;;10.07;;
25237;SDS011;13185;50.872;5.306;2023-02-28T07:32:26;9.33;;;6.23;;
25237;SDS011;13185;50.872;5.306;2023-02-28T07:34:53;8.00;;;4.70;;
25237;SDS011;13185;50.872;5.306;2023-02-28T07:37:19;7.97;;;4.10;;
25237;SDS011;13185;50.872;5.306;2023-02-28T07:39:45;9.13;;;4.63;;
25237;SDS011;13185;50.872;5.306;2023-02-28T07:42:10;6.07;;;3.90;;
25237;SDS011;13185;50.872;5.306;2023-02-28T07:44:38;7.30;;;4.27;;
25237;SDS011;13185;50.872;5.306;2023-02-28T07:47:09;7.63;;;4.27;;
25237;SDS011;13185;50.872;5.306;2023-02-28T07:49:35;6.23;;;3.87;;
25237;SDS011;13185;50.872;5.306;2023-02-28T07:52:02;5.33;;;3.63;;
25237;SDS011;13185;50.872;5.306;2023-02-28T07:54:28;7.93;;;3.63;;
25237;SDS011;13185;50.872;5.306;2023-02-28T07:56:54;9.17;;;4.20;;
25237;SDS011;13185;50.872;5.306;2023-02-28T07:59:20;7.67;;;4.17;;
25237;SDS011;13185;50.872;5.306;2023-02-28T08:01:45;6.10;;;4.63;;
25237;SDS011;13185;50.872;5.306;2023-02-28T08:04:10;10.77;;;4.70;;
25237;SDS011;13185;50.872;5.306;2023-02-28T08:06:36;6.97;;;5.00;;
25237;SDS011;13185;50.872;5.306;2023-02-28T08:09:02;9.57;;;5.63;;
25237;SDS011;13185;50.872;5.306;2023-02-28T08:11:28;10.07;;;4.97;;
25237;SDS011;13185;50.872;5.306;2023-02-28T08:13:54;10.93;;;5.00;;
25237;SDS011;13185;50.872;5.306;2023-02-28T08:16:20;7.83;;;3.90;;
25237;SDS011;13185;50.872;5.306;2023-02-28T08:18:50;7.33;;;3.83;;
25237;SDS011;13185;50.872;5.306;2023-02-28T08:21:17;10.03;;;4.20;;
25237;SDS011;13185;50.872;5.306;2023-02-28T08:23:45;5.77;;;3.77;;
25237;SDS011;13185;50.872;5.306;2023-02-28T08:26:13;11.23;;;3.73;;
25237;SDS011;13185;50.872;5.306;2023-02-28T08:28:39;6.47;;;3.60;;
25237;SDS011;13185;50.872;5.306;2023-02-28T08:31:11;6.77;;;4.03;;
25237;SDS011;13185;50.872;5.306;2023-02-28T08:33:38;7.60;;;3.90;;
25237;SDS011;13185;50.872;5.306;2023-02-28T08:36:05;7.30;;;3.80;;
25237;SDS011;13185;50.872;5.306;2023-02-28T08:38:32;8.67;;;3.43;;
25237;SDS011;13185;50.872;5.306;2023-02-28T08:40:58;5.23;;;2.93;;
25237;SDS011;13185;50.872;5.306;2023-02-28T08:43:25;7.57;;;3.30;;
25237;SDS011;13185;50.872;5.306;2023-02-28T08:45:51;6.53;;;3.13;;
25237;SDS011;13185;50.872;5.306;2023-02-28T08:48:17;4.47;;;3.10;;
25237;SDS011;13185;50.872;5.306;2023-02-28T08:50:43;4.23;;;3.10;;
25237;SDS011;13185;50.872;5.306;2023-02-28T08:53:08;4.70;;;3.50;;
25237;SDS011;13185;50.872;5.306;2023-02-28T08:55:33;8.10;;;4.00;;
25237;SDS011;13185;50.872;5.306;2023-02-28T08:57:59;4.67;;;3.40;;
25237;SDS011;13185;50.872;5.306;2023-02-28T09:00:26;5.43;;;3.40;;
25237;SDS011;13185;50.872;5.306;2023-02-28T09:02:51;6.67;;;3.33;;
25237;SDS011;13185;50.872;5.306;2023-02-28T09:05:17;5.03;;;3.13;;
25237;SDS011;13185;50.872;5.306;2023-02-28T09:07:43;4.63;;;3.10;;
25237;SDS011;13185;50.872;5.306;2023-02-28T09:10:09;6.77;;;3.20;;
25237;SDS011;13185;50.872;5.306;2023-02-28T09:12:35;4.47;;;2.70;;
25237;SDS011;13185;50.872;5.306;2023-02-28T09:15:01;6.33;;;2.80;;
25237;SDS011;13185;50.872;5.306;2023-02-28T09:17:27;5.03;;;3.00;;
25237;SDS011;13185;50.872;5.306;2023-02-28T09:19:53;5.20;;;2.77;;
25237;SDS011;13185;50.872;5.306;2023-02-28T09:22:18;3.57;;;2.47;;
25237;SDS011;13185;50.872;5.306;2023-02-28T09:24:44;3.47;;;2.27;;
25237;SDS011;13185;50.872;5.306;2023-02-28T09:27:09;6.60;;;3.13;;
25237;SDS011;13185;50.872;5.306;2023-02-28T09:29:35;4.10;;;2.03;;
25237;SDS011;13185;50.872;5.306;2023-02-28T09:32:02;2.70;;;1.60;;
25237;SDS011;13185;50.872;5.306;2023-02-28T09:34:27;2.53;;;1.50;;
25237;SDS011;13185;50.872;5.306;2023-02-28T09:36:55;5.50;;;1.83;;
25237;SDS011;13185;50.872;5.306;2023-02-28T09:39:21;5.53;;;1.87;;
25237;SDS011;13185;50.872;5.306;2023-02-28T09:41:48;2.50;;;1.50;;
25237;SDS011;13185;50.872;5.306;2023-02-28T09:44:36;3.77;;;1.90;;
25237;SDS011;13185;50.872;5.306;2023-02-28T09:47:07;3.33;;;1.63;;
25237;SDS011;13185;50.872;5.306;2023-02-28T09:49:44;4.43;;;2.07;;
25237;SDS011;13185;50.872;5.306;2023-02-28T09:52:14;4.73;;;1.73;;
25237;SDS011;13185;50.872;5.306;2023-02-28T09:54:44;3.47;;;1.73;;
25237;SDS011;13185;50.872;5.306;2023-02-28T10:09:57;3.13;;;2.20;;
25237;SDS011;13185;50.872;5.306;2023-02-28T10:12:26;3.53;;;2.13;;
25237;SDS011;13185;50.872;5.306;2023-02-28T10:14:54;3.97;;;1.90;;
25237;SDS011;13185;50.872;5.306;2023-02-28T10:17:25;3.47;;;1.60;;
25237;SDS011;13185;50.872;5.306;2023-02-28T10:20:00;2.90;;;2.00;;
25237;SDS011;13185;50.872;5.306;2023-02-28T10:22:38;1.73;;;1.43;;
25237;SDS011;13185;50.872;5.306;2023-02-28T10:25:17;6.53;;;1.83;;
25237;SDS011;13185;50.872;5.306;2023-02-28T10:27:44;2.60;;;1.77;;
25237;SDS011;13185;50.872;5.306;2023-02-28T10:30:11;1.83;;;1.37;;
25237;SDS011;13185;50.872;5.306;2023-02-28T10:32:38;4.77;;;1.57;;
25237;SDS011;13185;50.872;5.306;2023-02-28T10:35:14;3.00;;;1.47;;
25237;SDS011;13185;50.872;5.306;2023-02-28T10:37:58;1.80;;;1.10;;
25237;SDS011;13185;50.872;5.306;2023-02-28T10:40:33;2.73;;;1.57;;
25237;SDS011;13185;50.872;5.306;2023-02-28T10:43:04;2.10;;;1.27;;
25237;SDS011;13185;50.872;5.306;2023-02-28T10:45:53;7.03;;;1.70;;
25237;SDS011;13185;50.872;5.306;2023-02-28T10:48:37;3.00;;;1.30;;
25237;SDS011;13185;50.872;5.306;2023-02-28T10:51:15;2.37;;;1.50;;
25237;SDS011;13185;50.872;5.306;2023-02-28T11:01:18;1.10;;;0.97;;
25237;SDS011;13185;50.872;5.306;2023-02-28T11:04:03;1.30;;;1.00;;
25237;SDS011;13185;50.872;5.306;2023-02-28T11:06:42;8.20;;;1.50;;
25237;SDS011;13185;50.872;5.306;2023-02-28T11:09:23;1.33;;;0.97;;
25237;SDS011;13185;50.872;5.306;2023-02-28T11:11:50;2.50;;;1.20;;
25237;SDS011;13185;50.872;5.306;2023-02-28T11:14:21;1.37;;;1.20;;
25237;SDS011;13185;50.872;5.306;2023-02-28T11:16:50;3.73;;;1.27;;
25237;SDS011;13185;50.872;5.306;2023-02-28T11:19:24;1.43;;;1.20;;
25237;SDS011;13185;50.872;5.306;2023-02-28T11:21:55;1.30;;;1.00;;
25237;SDS011;13185;50.872;5.306;2023-02-28T11:24:26;1.47;;;1.00;;
25237;SDS011;13185;50.872;5.306;2023-02-28T11:26:58;1.50;;;0.93;;
25237;SDS011;13185;50.872;5.306;2023-02-28T11:29:29;1.70;;;1.10;;
25237;SDS011;13185;50.872;5.306;2023-02-28T11:34:33;1.40;;;0.90;;
25237;SDS011;13185;50.872;5.306;2023-02-28T11:37:01;1.73;;;1.17;;
25237;SDS011;13185;50.872;5.306;2023-02-28T11:39:30;2.17;;;1.00;;
25237;SDS011;13185;50.872;5.306;2023-02-28T11:42:11;1.93;;;1.10;;
25237;SDS011;13185;50.872;5.306;2023-02-28T12:17:14;2.50;;;0.93;;
25237;SDS011;13185;50.872;5.306;2023-02-28T12:28:42;2.17;;;1.10;;
25237;SDS011;13185;50.872;5.306;2023-02-28T12:31:17;5.88;;;1.50;;
25237;SDS011;13185;50.872;5.306;2023-02-28T12:33:48;6.10;;;1.90;;
25237;SDS011;13185;50.872;5.306;2023-02-28T12:36:18;2.93;;;1.20;;
25237;SDS011;13185;50.872;5.306;2023-02-28T12:38:48;2.63;;;1.17;;
25237;SDS011;13185;50.872;5.306;2023-02-28T12:41:16;4.40;;;1.30;;
25237;SDS011;13185;50.872;5.306;2023-02-28T12:44:23;2.25;;;1.08;;
25237;SDS011;13185;50.872;5.306;2023-02-28T12:46:58;8.40;;;1.45;;
25237;SDS011;13185;50.872;5.306;2023-02-28T12:49:34;1.92;;;1.30;;
25237;SDS011;13185;50.872;5.306;2023-02-28T12:52:06;1.85;;;1.27;;
25237;SDS011;13185;50.872;5.306;2023-02-28T12:54:49;3.13;;;1.20;;
25237;SDS011;13185;50.872;5.306;2023-02-28T13:00:04;3.50;;;1.30;;
25237;SDS011;13185;50.872;5.306;2023-02-28T13:10:46;2.08;;;1.67;;
25237;SDS011;13185;50.872;5.306;2023-02-28T13:13:21;10.70;;;1.35;;
25237;SDS011;13185;50.872;5.306;2023-02-28T13:16:04;1.83;;;1.20;;
25237;SDS011;13185;50.872;5.306;2023-02-28T13:21:03;3.05;;;1.73;;
25237;SDS011;13185;50.872;5.306;2023-02-28T13:23:39;9.90;;;1.88;;
25237;SDS011;13185;50.872;5.306;2023-02-28T13:26:12;6.05;;;1.70;;
25237;SDS011;13185;50.872;5.306;2023-02-28T13:31:26;3.35;;;1.60;;
25237;SDS011;13185;50.872;5.306;2023-02-28T13:36:26;2.20;;;1.55;;
25237;SDS011;13185;50.872;5.306;2023-02-28T13:38:56;2.08;;;1.50;;
25237;SDS011;13185;50.872;5.306;2023-02-28T13:44:15;2.90;;;1.73;;
25237;SDS011;13185;50.872;5.306;2023-02-28T13:49:23;2.08;;;1.58;;
25237;SDS011;13185;50.872;5.306;2023-02-28T13:51:55;2.58;;;1.80;;
25237;SDS011;13185;50.872;5.306;2023-02-28T13:57:24;2.58;;;1.45;;
25237;SDS011;13185;50.872;5.306;2023-02-28T14:00:28;4.05;;;1.55;;
25237;SDS011;13185;50.872;5.306;2023-02-28T14:11:42;2.70;;;1.83;;
25237;SDS011;13185;50.872;5.306;2023-02-28T14:14:09;3.30;;;1.33;;
25237;SDS011;13185;50.872;5.306;2023-02-28T14:16:59;3.17;;;1.48;;
25237;SDS011;13185;50.872;5.306;2023-02-28T14:19:29;2.00;;;1.40;;
25237;SDS011;13185;50.872;5.306;2023-02-28T14:31:21;3.38;;;1.80;;
25237;SDS011;13185;50.872;5.306;2023-02-28T14:33:59;2.10;;;1.70;;
25237;SDS011;13185;50.872;5.306;2023-02-28T14:36:43;1.90;;;1.60;;
25237;SDS011;13185;50.872;5.306;2023-02-28T14:39:14;3.80;;;1.67;;
25237;SDS011;13185;50.872;5.306;2023-02-28T14:41:42;2.35;;;2.15;;
25237;SDS011;13185;50.872;5.306;2023-02-28T14:44:19;2.92;;;1.80;;
25237;SDS011;13185;50.872;5.306;2023-02-28T14:46:56;3.28;;;1.85;;
25237;SDS011;13185;50.872;5.306;2023-02-28T14:49:26;5.20;;;1.75;;
25237;SDS011;13185;50.872;5.306;2023-02-28T14:52:05;2.63;;;1.80;;
25237;SDS011;13185;50.872;5.306;2023-02-28T14:54:34;2.72;;;1.63;;
25237;SDS011;13185;50.872;5.306;2023-02-28T14:57:01;2.53;;;1.63;;
25237;SDS011;13185;50.872;5.306;2023-02-28T14:59:29;4.25;;;1.40;;
25237;SDS011;13185;50.872;5.306;2023-02-28T15:04:41;3.10;;;1.60;;
25237;SDS011;13185;50.872;5.306;2023-02-28T15:07:10;3.83;;;1.98;;
25237;SDS011;13185;50.872;5.306;2023-02-28T15:09:40;6.35;;;1.73;;
25237;SDS011;13185;50.872;5.306;2023-02-28T15:12:06;4.68;;;1.73;;
25237;SDS011;13185;50.872;5.306;2023-02-28T15:14:32;6.30;;;1.65;;
25237;SDS011;13185;50.872;5.306;2023-02-28T15:17:09;2.63;;;1.70;;
25237;SDS011;13185;50.872;5.306;2023-02-28T15:19:46;3.03;;;1.50;;
25237;SDS011;13185;50.872;5.306;2023-02-28T15:22:17;1.80;;;1.48;;
25237;SDS011;13185;50.872;5.306;2023-02-28T15:24:49;2.00;;;1.45;;
25237;SDS011;13185;50.872;5.306;2023-02-28T15:27:21;4.43;;;1.70;;
25237;SDS011;13185;50.872;5.306;2023-02-28T15:29:51;3.13;;;1.50;;
25237;SDS011;13185;50.872;5.306;2023-02-28T15:32:28;4.60;;;2.10;;
25237;SDS011;13185;50.872;5.306;2023-02-28T15:34:57;3.25;;;2.70;;
25237;SDS011;13185;50.872;5.306;2023-02-28T15:37:26;2.80;;;1.80;;
25237;SDS011;13185;50.872;5.306;2023-02-28T15:39:52;1.90;;;1.70;;
25237;SDS011;13185;50.872;5.306;2023-02-28T15:42:20;4.40;;;1.70;;
25237;SDS011;13185;50.872;5.306;2023-02-28T15:44:46;6.00;;;1.65;;
25237;SDS011;13185;50.872;5.306;2023-02-28T15:47:15;1.88;;;1.67;;
25237;SDS011;13185;50.872;5.306;2023-02-28T15:52:40;3.83;;;1.67;;
25237;SDS011;13185;50.872;5.306;2023-02-28T15:55:12;3.75;;;1.83;;
25237;SDS011;13185;50.872;5.306;2023-02-28T15:57:52;3.63;;;2.00;;
25237;SDS011;13185;50.872;5.306;2023-02-28T16:00:21;2.05;;;1.33;;
25237;SDS011;13185;50.872;5.306;2023-02-28T16:02:49;3.17;;;2.00;;
25237;SDS011;13185;50.872;5.306;2023-02-28T16:07:57;2.15;;;1.95;;
25237;SDS011;13185;50.872;5.306;2023-02-28T16:10:24;3.10;;;1.80;;
25237;SDS011;13185;50.872;5.306;2023-02-28T16:12:53;3.03;;;1.70;;
25237;SDS011;13185;50.872;5.306;2023-02-28T16:15:21;2.25;;;1.58;;
25237;SDS011;13185;50.872;5.306;2023-02-28T16:17:53;4.50;;;1.55;;
25237;SDS011;13185;50.872;5.306;2023-02-28T16:20:24;1.90;;;1.40;;
25237;SDS011;13185;50.872;5.306;2023-02-28T16:22:51;3.22;;;2.03;;
25237;SDS011;13185;50.872;5.306;2023-02-28T16:25:18;3.05;;;1.63;;
25237;SDS011;13185;50.872;5.306;2023-02-28T16:27:50;4.32;;;1.80;;
25237;SDS011;13185;50.872;5.306;2023-02-28T16:30:25;5.18;;;1.55;;
25237;SDS011;13185;50.872;5.306;2023-02-28T16:32:53;2.75;;;1.73;;
25237;SDS011;13185;50.872;5.306;2023-02-28T16:35:20;1.90;;;1.60;;
25237;SDS011;13185;50.872;5.306;2023-02-28T16:37:47;3.13;;;1.80;;
25237;SDS011;13185;50.872;5.306;2023-02-28T16:40:13;4.15;;;2.00;;
25237;SDS011;13185;50.872;5.306;2023-02-28T16:42:44;3.58;;;2.22;;
25237;SDS011;13185;50.872;5.306;2023-02-28T16:45:21;3.65;;;1.77;;
25237;SDS011;13185;50.872;5.306;2023-02-28T16:47:49;3.72;;;2.00;;
25237;SDS011;13185;50.872;5.306;2023-02-28T16:50:15;3.22;;;2.00;;
25237;SDS011;13185;50.872;5.306;2023-02-28T16:52:49;3.08;;;2.17;;
25237;SDS011;13185;50.872;5.306;2023-02-28T16:55:17;5.43;;;2.30;;
25237;SDS011;13185;50.872;5.306;2023-02-28T16:57:50;5.63;;;2.40;;
25237;SDS011;13185;50.872;5.306;2023-02-28T17:00:18;2.75;;;2.30;;
25237;SDS011;13185;50.872;5.306;2023-02-28T17:02:44;10.70;;;2.65;;
25237;SDS011;13185;50.872;5.306;2023-02-28T17:05:12;5.40;;;2.17;;
25237;SDS011;13185;50.872;5.306;2023-02-28T17:07:40;4.32;;;2.67;;
25237;SDS011;13185;50.872;5.306;2023-02-28T17:10:14;4.13;;;2.70;;
25237;SDS011;13185;50.872;5.306;2023-02-28T17:12:40;5.03;;;2.92;;
25237;SDS011;13185;50.872;5.306;2023-02-28T17:15:05;3.13;;;2.30;;
25237;SDS011;13185;50.872;5.306;2023-02-28T17:17:34;3.75;;;2.30;;
25237;SDS011;13185;50.872;5.306;2023-02-28T17:20:00;2.67;;;1.90;;
25237;SDS011;13185;50.872;5.306;2023-02-28T17:22:25;2.42;;;1.98;;
25237;SDS011;13185;50.872;5.306;2023-02-28T17:24:51;5.93;;;2.50;;
25237;SDS011;13185;50.872;5.306;2023-02-28T17:27:20;2.63;;;2.10;;
25237;SDS011;13185;50.872;5.306;2023-02-28T17:29:46;2.22;;;1.95;;
25237;SDS011;13185;50.872;5.306;2023-02-28T17:32:12;3.53;;;1.90;;
25237;SDS011;13185;50.872;5.306;2023-02-28T17:34:37;3.50;;;2.17;;
25237;SDS011;13185;50.872;5.306;2023-02-28T17:37:03;4.43;;;2.80;;
25237;SDS011;13185;50.872;5.306;2023-02-28T17:39:29;6.88;;;2.30;;
25237;SDS011;13185;50.872;5.306;2023-02-28T17:41:56;5.50;;;2.45;;
25237;SDS011;13185;50.872;5.306;2023-02-28T17:44:22;3.85;;;2.25;;
25237;SDS011;13185;50.872;5.306;2023-02-28T17:46:49;4.07;;;2.30;;